Time;durP1;ratioP1;P1;durP2;ratioP2;P2;SDS_P1;SDS_P2;PMS_P1;PMS_P2;Temp;Humidity;BMP_temperature;BMP_pressure;BME280_temperature;BME280_humidity;BME280_pressure;Samples;Min_cycle;Max_cycle;Signal;HPM_P1;HPM_P2
2022/08/05 00:01:15;;;;;;;0.75;0.43;;;25.30;59.30;;;;;;5015099;28;20037;-73
2022/08/05 00:03:41;;;;;;;0.88;0.47;;;25.30;59.40;;;;;;5032653;28;20013;-73
2022/08/05 00:06:07;;;;;;;1.92;0.52;;;25.30;59.40;;;;;;5032382;28;20022;-73
2022/08/05 00:08:33;;;;;;;2.22;0.40;;;25.30;59.40;;;;;;5032867;28;20025;-73
2022/08/05 00:10:59;;;;;;;3.10;0.60;;;25.20;59.40;;;;;;5034908;28;20052;-73
2022/08/05 00:13:25;;;;;;;0.40;0.30;;;25.20;59.50;;;;;;5036909;28;20435;-73
2022/08/05 00:15:50;;;;;;;1.85;0.50;;;25.30;59.60;;;;;;5036616;28;20061;-73
2022/08/05 00:18:16;;;;;;;1.80;0.50;;;25.20;59.60;;;;;;5036748;28;20087;-73
2022/08/05 00:20:42;;;;;;;2.20;0.57;;;25.20;59.50;;;;;;5036333;28;20456;-73
2022/08/05 00:23:08;;;;;;;2.08;0.40;;;25.20;59.60;;;;;;5036340;28;20028;-73
2022/08/05 00:25:33;;;;;;;1.58;0.47;;;25.20;59.80;;;;;;5035127;28;20021;-73
2022/08/05 00:27:59;;;;;;;1.55;0.40;;;25.20;59.80;;;;;;5068055;28;20571;-73
2022/08/05 00:30:25;;;;;;;1.30;0.55;;;25.20;59.80;;;;;;5036403;28;20468;-73
2022/08/05 00:32:50;;;;;;;1.75;0.60;;;25.20;59.80;;;;;;5036336;28;20078;-73
2022/08/05 00:35:16;;;;;;;2.22;0.60;;;25.20;59.70;;;;;;5036161;28;20033;-73
2022/08/05 00:37:42;;;;;;;1.17;0.55;;;25.20;59.90;;;;;;5036428;28;20399;-73
2022/08/05 00:40:08;;;;;;;0.63;0.50;;;25.10;59.90;;;;;;5036198;28;20395;-73
2022/08/05 00:42:37;;;;;;;1.92;0.40;;;25.10;60.00;;;;;;5036002;28;20029;-73
2022/08/05 00:45:04;;;;;;;0.65;0.47;;;25.10;60.00;;;;;;5067820;28;20526;-73
2022/08/05 00:47:30;;;;;;;1.77;0.52;;;25.20;60.00;;;;;;5035856;28;20018;-73
2022/08/05 00:49:55;;;;;;;1.60;0.73;;;25.10;60.10;;;;;;5035785;28;20079;-73
2022/08/05 00:52:21;;;;;;;2.03;0.50;;;25.10;60.10;;;;;;5036099;28;20037;-73
2022/08/05 00:54:47;;;;;;;0.55;0.35;;;25.10;60.10;;;;;;5035781;28;20037;-73
2022/08/05 00:57:13;;;;;;;0.70;0.47;;;25.10;60.00;;;;;;5018283;28;20467;-73
2022/08/05 00:59:39;;;;;;;1.33;0.60;;;25.10;60.00;;;;;;5036179;28;20029;-73
2022/08/05 01:02:05;;;;;;;3.28;0.65;;;25.10;60.10;;;;;;5034347;28;20110;-73
2022/08/05 01:04:30;;;;;;;2.38;0.60;;;25.10;60.10;;;;;;5034506;28;20034;-73
2022/08/05 01:06:56;;;;;;;2.65;0.68;;;25.10;60.00;;;;;;5035962;28;20084;-73
2022/08/05 01:09:22;;;;;;;2.38;0.60;;;25.10;60.10;;;;;;5035648;28;20091;-73
2022/08/05 01:11:54;;;;;;;1.08;0.50;;;25.10;60.20;;;;;;5035795;28;20037;-73
2022/08/05 01:14:26;;;;;;;2.20;0.47;;;25.10;60.10;;;;;;5034314;28;20060;-73
2022/08/05 01:17:13;;;;;;;0.70;0.40;;;25.10;60.20;;;;;;5018118;28;20025;-73
2022/08/05 01:19:40;;;;;;;1.55;0.57;;;25.00;60.10;;;;;;5035547;28;20491;-73
2022/08/05 01:22:06;;;;;;;2.00;0.50;;;25.00;60.20;;;;;;5033311;28;20452;-73
2022/08/05 01:24:49;;;;;;;3.75;0.40;;;25.00;60.20;;;;;;5035500;28;20028;-73
2022/08/05 01:27:28;;;;;;;1.02;0.43;;;25.00;60.10;;;;;;5033964;28;20028;-73
2022/08/05 01:29:55;;;;;;;2.63;0.60;;;25.00;60.10;;;;;;5033985;28;20495;-73
2022/08/05 01:32:23;;;;;;;1.52;0.40;;;25.00;60.10;;;;;;5034037;28;20025;-73
2022/08/05 01:34:59;;;;;;;2.17;0.40;;;25.00;60.20;;;;;;5034183;28;20030;-73
2022/08/05 01:37:39;;;;;;;4.40;0.55;;;25.00;60.20;;;;;;5033965;28;20079;-73
2022/08/05 01:40:06;;;;;;;5.55;0.80;;;25.00;60.20;;;;;;5033770;28;20032;-73
2022/08/05 01:42:31;;;;;;;1.65;0.50;;;25.00;60.40;;;;;;5033795;28;20026;-73
2022/08/05 01:44:58;;;;;;;0.88;0.40;;;25.00;60.50;;;;;;5033942;28;20084;-73
2022/08/05 01:47:24;;;;;;;3.22;0.70;;;25.00;60.40;;;;;;5032839;28;20026;-73
2022/08/05 01:49:50;;;;;;;2.53;0.60;;;25.00;60.50;;;;;;5067150;28;20423;-73
2022/08/05 01:52:16;;;;;;;1.20;0.30;;;25.00;60.50;;;;;;5066843;28;20026;-73
2022/08/05 01:54:53;;;;;;;1.17;0.47;;;25.00;60.70;;;;;;5066718;28;20082;-73
2022/08/05 01:57:23;;;;;;;2.35;0.50;;;24.90;60.60;;;;;;5033542;28;20025;-73
2022/08/05 01:59:49;;;;;;;1.85;0.47;;;25.00;60.70;;;;;;5033762;28;20022;-73
2022/08/05 02:02:15;;;;;;;0.80;0.40;;;25.00;60.70;;;;;;5033479;28;20403;-73
2022/08/05 02:04:40;;;;;;;1.75;0.50;;;24.90;60.70;;;;;;5033485;28;20044;-73
2022/08/05 02:07:06;;;;;;;0.77;0.60;;;24.90;60.70;;;;;;5016943;28;20022;-73
2022/08/05 02:09:32;;;;;;;1.35;0.70;;;24.90;60.80;;;;;;5033454;28;20111;-73
2022/08/05 02:12:07;;;;;;;1.88;0.60;;;24.90;61.80;;;;;;5033339;28;20022;-73
2022/08/05 02:14:39;;;;;;;3.58;0.60;;;24.90;60.80;;;;;;5033178;28;20518;-73
2022/08/05 02:17:11;;;;;;;1.75;0.40;;;24.90;61.00;;;;;;5033190;28;20049;-73
2022/08/05 02:19:41;;;;;;;2.35;0.80;;;24.90;61.00;;;;;;5033304;28;20061;-73
2022/08/05 02:22:26;;;;;;;2.60;0.60;;;24.90;61.00;;;;;;5017398;28;20018;-73
2022/08/05 02:24:54;;;;;;;2.17;0.80;;;24.90;61.10;;;;;;5033284;28;20022;-73
2022/08/05 02:27:20;;;;;;;1.10;0.60;;;24.90;61.10;;;;;;5016864;28;20035;-73
2022/08/05 02:29:47;;;;;;;1.45;0.60;;;24.90;61.10;;;;;;5032826;28;20045;-73
2022/08/05 02:32:13;;;;;;;1.80;0.80;;;24.90;61.10;;;;;;5033999;28;20083;-73
2022/08/05 02:34:38;;;;;;;1.73;0.70;;;24.90;61.30;;;;;;5032859;28;20099;-73
2022/08/05 02:37:06;;;;;;;3.50;0.70;;;24.90;62.50;;;;;;5032782;28;20049;-73
2022/08/05 02:39:35;;;;;;;1.50;0.50;;;24.90;61.30;;;;;;5033829;28;20050;-73
2022/08/05 02:42:01;;;;;;;3.08;0.63;;;24.90;61.20;;;;;;5033892;28;20475;-72
2022/08/05 02:44:27;;;;;;;1.98;0.68;;;24.90;61.30;;;;;;5016045;28;20029;-73
2022/08/05 02:46:55;;;;;;;2.53;0.50;;;24.90;61.30;;;;;;5016466;28;20092;-73
2022/08/05 02:49:20;;;;;;;2.45;0.40;;;24.90;61.50;;;;;;5016074;28;20026;-73
2022/08/05 02:51:46;;;;;;;4.72;0.80;;;24.90;61.50;;;;;;5032592;28;20072;-73
2022/08/05 02:54:12;;;;;;;2.70;0.55;;;24.90;61.50;;;;;;5033486;28;20033;-73
2022/08/05 02:56:38;;;;;;;3.63;0.60;;;24.90;61.50;;;;;;5032451;28;20494;-73
2022/08/05 02:59:04;;;;;;;3.10;0.93;;;24.90;61.50;;;;;;5032311;28;20061;-73
2022/08/05 03:01:30;;;;;;;2.70;0.70;;;24.90;61.40;;;;;;5032320;28;20116;-73
2022/08/05 03:03:57;;;;;;;2.15;0.82;;;24.90;61.50;;;;;;5032307;28;20030;-73
2022/08/05 03:06:23;;;;;;;3.95;0.70;;;24.90;61.40;;;;;;5015903;28;20017;-73
2022/08/05 03:08:49;;;;;;;1.65;0.60;;;24.90;61.50;;;;;;5032335;28;20463;-73
2022/08/05 03:11:22;;;;;;;1.60;0.70;;;24.80;61.40;;;;;;5032135;28;20502;-73
2022/08/05 03:13:48;;;;;;;2.70;0.43;;;24.80;61.30;;;;;;5031714;28;20103;-73
2022/08/05 03:16:14;;;;;;;1.42;0.60;;;24.80;61.40;;;;;;5032057;28;20065;-73
2022/08/05 03:18:39;;;;;;;1.60;0.60;;;24.80;61.40;;;;;;5032111;28;20094;-73
2022/08/05 03:21:05;;;;;;;1.80;0.73;;;24.90;61.40;;;;;;5033403;28;20101;-73
2022/08/05 03:23:32;;;;;;;1.85;0.50;;;24.80;61.40;;;;;;5033316;28;20578;-73
2022/08/05 03:25:57;;;;;;;2.05;0.70;;;24.80;61.30;;;;;;5031882;28;20109;-73
2022/08/05 03:28:23;;;;;;;3.13;0.60;;;24.80;61.40;;;;;;5031390;28;20480;-73
2022/08/05 03:30:49;;;;;;;1.23;0.45;;;24.80;61.40;;;;;;5032033;28;20041;-73
2022/08/05 03:33:14;;;;;;;1.73;0.60;;;24.80;61.40;;;;;;5031204;28;20045;-73
2022/08/05 03:35:40;;;;;;;2.55;0.70;;;24.80;61.40;;;;;;5048225;28;20112;-73
2022/08/05 03:38:05;;;;;;;3.80;0.70;;;24.80;61.40;;;;;;5033103;28;20022;-73
2022/08/05 03:40:31;;;;;;;1.38;0.65;;;24.80;61.40;;;;;;5032898;28;20056;-73
2022/08/05 03:42:57;;;;;;;2.75;0.65;;;24.80;61.40;;;;;;5032914;28;20021;-73
2022/08/05 03:45:22;;;;;;;2.35;0.60;;;24.80;61.40;;;;;;5032242;28;20033;-73
2022/08/05 03:47:48;;;;;;;1.50;0.70;;;24.80;61.50;;;;;;5032983;28;20025;-73
2022/08/05 03:50:14;;;;;;;0.95;0.50;;;24.80;61.40;;;;;;5032999;28;20396;-73
2022/08/05 03:53:07;;;;;;;1.75;0.63;;;24.80;61.40;;;;;;5032761;28;20030;-73
2022/08/05 03:55:34;;;;;;;1.52;0.60;;;24.80;61.30;;;;;;5030989;28;20041;-73
2022/08/05 03:58:00;;;;;;;1.45;0.50;;;24.80;61.40;;;;;;5031416;28;20484;-73
2022/08/05 04:00:28;;;;;;;1.50;0.77;;;24.80;61.40;;;;;;5015179;28;20033;-73
2022/08/05 04:02:55;;;;;;;1.67;0.50;;;24.80;61.50;;;;;;5015572;28;20101;-73
2022/08/05 04:05:21;;;;;;;3.70;0.80;;;24.80;62.60;;;;;;5030322;28;20033;-73
2022/08/05 04:07:46;;;;;;;1.27;0.50;;;24.80;61.90;;;;;;5044946;28;20016;-73
2022/08/05 04:10:12;;;;;;;1.30;0.60;;;24.80;61.80;;;;;;5044936;28;20095;-73
2022/08/05 04:12:37;;;;;;;1.50;0.65;;;24.80;61.70;;;;;;5044812;28;20443;-73
2022/08/05 04:15:04;;;;;;;5.68;0.60;;;24.80;61.80;;;;;;5061589;28;20075;-73
2022/08/05 04:17:30;;;;;;;2.17;0.68;;;24.80;61.70;;;;;;5061653;28;20056;-73
2022/08/05 04:19:55;;;;;;;0.90;0.50;;;24.80;61.70;;;;;;5061829;28;20048;-73
2022/08/05 04:22:21;;;;;;;1.33;0.50;;;24.80;61.80;;;;;;5031887;28;20526;-73
2022/08/05 04:24:46;;;;;;;2.70;0.57;;;24.80;61.80;;;;;;5033799;28;20026;-73
2022/08/05 04:27:12;;;;;;;2.38;0.60;;;24.80;61.80;;;;;;5061399;28;20028;-73
2022/08/05 04:29:38;;;;;;;1.73;0.60;;;24.80;61.80;;;;;;5029534;28;20038;-73
2022/08/05 04:32:04;;;;;;;2.17;0.80;;;24.80;61.90;;;;;;5028718;28;20524;-73
2022/08/05 04:34:30;;;;;;;2.47;0.50;;;24.70;61.80;;;;;;5029760;28;20025;-73
2022/08/05 04:36:56;;;;;;;4.30;0.70;;;24.70;61.70;;;;;;5029770;28;20088;-73
2022/08/05 04:39:21;;;;;;;3.80;0.80;;;24.70;61.70;;;;;;5061642;28;20021;-72
2022/08/05 04:41:47;;;;;;;1.00;0.70;;;24.70;61.70;;;;;;5031579;28;20475;-72
2022/08/05 04:44:13;;;;;;;2.75;0.70;;;24.70;61.70;;;;;;5015932;28;20052;-72
2022/08/05 04:46:38;;;;;;;2.58;0.35;;;24.80;61.80;;;;;;5032588;28;20025;-72
2022/08/05 04:49:05;;;;;;;1.17;0.30;;;24.80;61.80;;;;;;5030456;28;20026;-72
2022/08/05 04:51:31;;;;;;;1.45;0.50;;;24.70;61.70;;;;;;5061451;28;20116;-72
2022/08/05 04:53:57;;;;;;;3.25;0.90;;;24.70;61.70;;;;;;5032567;28;20051;-72
2022/08/05 04:56:23;;;;;;;1.50;0.70;;;24.70;61.70;;;;;;5063373;28;20025;-73
2022/08/05 04:58:48;;;;;;;2.15;0.65;;;24.70;61.80;;;;;;5032231;28;20024;-73
2022/08/05 05:01:14;;;;;;;0.93;0.45;;;24.70;61.70;;;;;;5033726;28;20032;-73
2022/08/05 05:03:40;;;;;;;3.78;0.68;;;24.70;61.80;;;;;;5037065;28;20021;-72
2022/08/05 05:06:08;;;;;;;2.35;0.77;;;24.70;61.70;;;;;;5032973;28;20056;-72
2022/08/05 05:08:35;;;;;;;1.30;0.40;;;24.70;61.70;;;;;;5047449;28;20010;-73
2022/08/05 05:11:01;;;;;;;3.75;0.73;;;24.70;61.80;;;;;;5048220;28;20464;-73
2022/08/05 05:13:26;;;;;;;0.90;0.50;;;24.70;61.90;;;;;;5034676;28;20112;-73
2022/08/05 05:15:52;;;;;;;2.85;0.80;;;24.70;61.90;;;;;;5035519;28;20095;-73
2022/08/05 05:18:18;;;;;;;3.13;0.70;;;24.70;61.90;;;;;;5033402;28;20063;-73
2022/08/05 05:20:44;;;;;;;1.85;0.70;;;24.60;61.80;;;;;;5035104;28;20463;-73
2022/08/05 05:23:10;;;;;;;1.90;0.50;;;24.70;62.00;;;;;;5064316;28;20057;-73
2022/08/05 05:25:36;;;;;;;1.42;0.47;;;24.70;62.00;;;;;;5047599;28;20067;-73
2022/08/05 05:28:01;;;;;;;2.45;0.60;;;24.60;62.00;;;;;;5034564;28;20029;-73
2022/08/05 05:30:27;;;;;;;1.95;0.82;;;24.60;62.00;;;;;;5032506;28;20022;-73
2022/08/05 05:32:52;;;;;;;3.22;0.63;;;24.60;62.10;;;;;;5064318;28;20026;-73
2022/08/05 05:35:18;;;;;;;2.45;0.43;;;24.60;62.10;;;;;;5032407;28;20033;-73
2022/08/05 05:37:55;;;;;;;1.83;0.60;;;24.60;62.10;;;;;;5064156;28;20499;-73
2022/08/05 05:40:21;;;;;;;1.20;0.50;;;24.60;62.20;;;;;;5030756;28;20049;-73
2022/08/05 05:42:47;;;;;;;0.93;0.45;;;24.60;62.20;;;;;;5064210;28;20494;-73
2022/08/05 05:45:13;;;;;;;1.08;0.55;;;24.60;62.30;;;;;;5021082;28;20057;-73
2022/08/05 05:47:39;;;;;;;1.73;0.60;;;24.60;62.30;;;;;;5066833;28;20029;-73
2022/08/05 05:50:09;;;;;;;1.13;0.63;;;24.60;62.30;;;;;;5050376;28;20067;-72
2022/08/05 05:52:35;;;;;;;2.45;0.82;;;24.60;62.30;;;;;;5049606;28;20070;-72
2022/08/05 05:55:02;;;;;;;1.42;0.50;;;24.60;62.50;;;;;;5066017;28;20021;-71
2022/08/05 05:57:27;;;;;;;2.13;0.60;;;24.60;61.20;;;;;;5046743;28;20073;-72
2022/08/05 05:59:53;;;;;;;1.33;0.55;;;24.60;60.30;;;;;;5045598;28;20048;-72
2022/08/05 06:02:18;;;;;;;1.73;0.60;;;24.50;60.10;;;;;;5046692;28;20104;-71
2022/08/05 06:04:44;;;;;;;2.13;0.52;;;24.50;60.30;;;;;;5048015;28;20056;-71
2022/08/05 06:07:10;;;;;;;0.60;0.35;;;24.50;61.50;;;;;;5046669;28;20037;-72
2022/08/05 06:09:35;;;;;;;1.63;0.63;;;24.50;60.40;;;;;;5038368;28;20025;-72
2022/08/05 06:12:01;;;;;;;1.80;0.52;;;24.50;60.50;;;;;;5040131;28;20025;-72
2022/08/05 06:14:27;;;;;;;0.63;0.32;;;24.40;60.40;;;;;;5041752;28;20534;-72
2022/08/05 06:16:52;;;;;;;1.42;0.57;;;24.50;60.40;;;;;;5040335;28;20033;-71
2022/08/05 06:19:18;;;;;;;4.00;0.70;;;24.40;60.30;;;;;;5043743;28;20031;-71
2022/08/05 06:21:45;;;;;;;1.45;0.50;;;24.40;60.30;;;;;;5039766;28;20517;-71
2022/08/05 06:24:10;;;;;;;0.40;0.38;;;24.50;60.30;;;;;;5048801;28;20497;-72
2022/08/05 06:26:36;;;;;;;0.68;0.40;;;24.40;60.20;;;;;;5022816;28;20033;-71
2022/08/05 06:29:02;;;;;;;1.42;0.50;;;24.40;61.30;;;;;;5041733;28;20053;-71
2022/08/05 06:31:28;;;;;;;3.30;0.52;;;24.40;60.20;;;;;;5029752;28;20048;-71
2022/08/05 06:33:53;;;;;;;1.90;0.55;;;24.40;60.20;;;;;;5042063;28;20491;-71
2022/08/05 06:36:19;;;;;;;0.70;0.40;;;24.40;60.20;;;;;;5046774;28;20116;-71
2022/08/05 06:38:45;;;;;;;1.52;0.40;;;24.40;60.40;;;;;;5040670;28;20454;-71
2022/08/05 06:41:11;;;;;;;1.23;0.52;;;24.40;60.30;;;;;;5043960;28;20093;-72
2022/08/05 06:43:36;;;;;;;2.90;1.25;;;24.40;60.40;;;;;;5032830;28;20028;-72
2022/08/05 06:46:02;;;;;;;8.50;1.73;;;24.40;60.40;;;;;;5033250;28;20112;-72
2022/08/05 06:48:28;;;;;;;4.93;1.50;;;24.40;60.50;;;;;;5065095;28;20022;-72
2022/08/05 06:50:53;;;;;;;4.38;1.20;;;24.30;60.50;;;;;;5032914;28;20053;-72
2022/08/05 06:53:19;;;;;;;5.65;1.48;;;24.30;60.60;;;;;;5032101;28;20030;-72
2022/08/05 06:55:45;;;;;;;5.25;1.40;;;24.40;60.60;;;;;;5064476;28;20025;-72
2022/08/05 06:58:10;;;;;;;7.70;2.13;;;24.30;60.60;;;;;;5032019;28;20510;-72
2022/08/05 07:00:36;;;;;;;10.70;2.30;;;24.30;60.70;;;;;;5032761;28;20033;-72
2022/08/05 07:03:01;;;;;;;6.43;1.95;;;24.30;60.70;;;;;;5031742;28;20028;-72
2022/08/05 07:05:27;;;;;;;5.43;2.20;;;24.30;60.70;;;;;;5032827;28;20034;-72
2022/08/05 07:07:53;;;;;;;11.20;2.13;;;24.30;60.70;;;;;;5033120;28;20024;-72
2022/08/05 07:10:18;;;;;;;11.70;2.22;;;24.30;60.80;;;;;;5032964;28;20033;-72
2022/08/05 07:18:12;;;;;;;8.27;2.28;;;24.30;60.90;;;;;;5032650;28;20538;-72
2022/08/05 07:20:38;;;;;;;9.10;2.72;;;24.30;60.90;;;;;;5031794;28;20025;-72
2022/08/05 07:23:04;;;;;;;11.98;2.60;;;24.30;60.90;;;;;;5031510;28;20014;-72
2022/08/05 07:25:29;;;;;;;5.95;2.28;;;24.30;60.90;;;;;;5031451;28;20597;-72
2022/08/05 07:27:55;;;;;;;10.63;2.70;;;24.30;60.90;;;;;;5032538;28;20065;-72
2022/08/05 07:30:21;;;;;;;9.00;2.45;;;24.30;60.90;;;;;;5031034;28;20136;-72
2022/08/05 07:32:46;;;;;;;9.77;2.63;;;24.30;60.90;;;;;;5032328;28;20075;-72
2022/08/05 07:35:12;;;;;;;10.15;2.58;;;24.30;61.00;;;;;;5032329;28;20025;-72
2022/08/05 07:37:38;;;;;;;9.60;2.83;;;24.30;60.90;;;;;;5031184;28;20017;-72
2022/08/05 07:40:04;;;;;;;10.50;2.88;;;24.30;60.90;;;;;;5031240;28;20026;-72
2022/08/05 07:42:30;;;;;;;11.38;2.90;;;24.30;60.90;;;;;;5031186;28;20030;-72
2022/08/05 07:44:56;;;;;;;7.38;2.83;;;24.30;61.00;;;;;;5030682;28;20541;-72
2022/08/05 07:47:21;;;;;;;8.35;2.33;;;24.30;61.00;;;;;;5032286;28;20053;-72
2022/08/05 07:49:47;;;;;;;11.60;2.67;;;24.30;61.00;;;;;;5030711;28;20025;-72
2022/08/05 07:52:13;;;;;;;9.05;2.47;;;24.30;61.00;;;;;;5032402;28;20092;-72
2022/08/05 07:54:38;;;;;;;7.88;2.80;;;24.20;61.00;;;;;;5032072;28;20045;-72
2022/08/05 07:57:04;;;;;;;10.85;3.17;;;24.30;61.00;;;;;;5030900;28;20100;-72
2022/08/05 07:59:30;;;;;;;8.48;2.42;;;24.20;61.00;;;;;;5031000;28;20033;-72
2022/08/05 08:01:55;;;;;;;8.50;2.67;;;24.20;61.00;;;;;;5030854;28;20036;-72
2022/08/05 08:04:21;;;;;;;10.07;2.85;;;24.20;61.00;;;;;;5032006;28;20022;-72
2022/08/05 08:06:46;;;;;;;7.53;2.67;;;24.20;61.00;;;;;;5030746;28;20036;-72
2022/08/05 08:09:12;;;;;;;6.95;2.63;;;24.20;61.00;;;;;;5030890;28;20026;-72
2022/08/05 08:11:38;;;;;;;9.55;2.75;;;24.20;61.00;;;;;;5030881;28;20368;-72
2022/08/05 08:14:03;;;;;;;6.18;2.42;;;24.20;61.10;;;;;;5030790;28;20029;-72
2022/08/05 08:16:29;;;;;;;7.68;2.33;;;24.20;61.10;;;;;;5032197;28;20111;-72
2022/08/05 08:18:55;;;;;;;7.60;2.50;;;24.20;61.10;;;;;;5030534;28;20025;-72
2022/08/05 08:21:20;;;;;;;7.57;2.35;;;24.20;61.10;;;;;;5014194;28;20033;-72
2022/08/05 08:23:46;;;;;;;10.25;2.60;;;24.20;61.10;;;;;;5030674;28;20030;-72
2022/08/05 08:26:12;;;;;;;6.28;2.90;;;24.20;61.00;;;;;;5030759;28;20029;-72
2022/08/05 08:28:37;;;;;;;7.45;2.45;;;24.20;61.10;;;;;;5030281;28;20057;-72
2022/08/05 08:31:07;;;;;;;5.57;2.15;;;24.20;62.10;;;;;;5033646;28;20025;-72
2022/08/05 08:33:32;;;;;;;9.30;2.53;;;24.20;61.10;;;;;;5034619;28;20101;-72
2022/08/05 08:35:58;;;;;;;6.90;2.60;;;24.10;61.00;;;;;;5034456;28;20109;-72
2022/08/05 08:38:24;;;;;;;7.03;2.53;;;24.10;61.00;;;;;;5035656;28;20022;-72
2022/08/05 08:40:49;;;;;;;6.18;2.15;;;24.20;62.10;;;;;;5035576;28;20068;-72
2022/08/05 08:43:15;;;;;;;5.85;2.28;;;24.20;61.10;;;;;;5034481;28;20025;-72
2022/08/05 08:45:41;;;;;;;7.20;2.70;;;24.20;61.20;;;;;;5014479;28;20030;-72
2022/08/05 08:48:06;;;;;;;6.57;2.22;;;24.20;61.10;;;;;;5014577;28;20399;-72
2022/08/05 08:50:32;;;;;;;7.28;2.47;;;24.20;61.10;;;;;;5014436;28;20022;-72
2022/08/05 08:53:07;;;;;;;6.60;2.25;;;24.20;61.10;;;;;;5026143;28;20033;-72
2022/08/05 08:55:33;;;;;;;6.32;2.30;;;24.20;61.10;;;;;;5017871;28;20025;-72
2022/08/05 08:58:02;;;;;;;5.35;2.10;;;24.10;61.00;;;;;;5033951;28;20029;-72
2022/08/05 09:00:28;;;;;;;6.75;2.42;;;24.10;61.10;;;;;;5035114;28;20025;-72
2022/08/05 09:02:53;;;;;;;4.32;1.98;;;24.10;61.20;;;;;;5035090;28;20026;-72
2022/08/05 09:05:19;;;;;;;6.05;2.58;;;24.10;61.10;;;;;;5035399;28;20335;-72
2022/08/05 09:07:45;;;;;;;5.28;2.00;;;24.10;61.10;;;;;;5033916;28;20049;-72
2022/08/05 09:10:11;;;;;;;8.00;2.20;;;24.10;61.10;;;;;;5034097;28;20026;-72
2022/08/05 09:12:37;;;;;;;4.13;2.00;;;24.10;61.10;;;;;;5017740;28;20084;-72
2022/08/05 09:15:03;;;;;;;5.97;2.38;;;24.10;61.20;;;;;;5033372;28;20028;-72
2022/08/05 09:17:29;;;;;;;3.95;1.70;;;24.10;61.20;;;;;;5033828;28;20499;-72
2022/08/05 09:19:55;;;;;;;4.00;1.88;;;24.10;61.10;;;;;;5033489;28;20044;-72
2022/08/05 09:22:20;;;;;;;6.53;2.45;;;24.10;61.10;;;;;;5035069;28;20034;-72
2022/08/05 09:24:59;;;;;;;4.47;2.20;;;24.10;61.10;;;;;;5033650;28;20021;-72
2022/08/05 09:27:32;;;;;;;5.75;1.70;;;24.10;61.10;;;;;;5033512;28;20018;-72
2022/08/05 09:29:58;;;;;;;4.95;1.98;;;24.10;61.10;;;;;;5033129;28;20045;-72
2022/08/05 09:32:33;;;;;;;4.03;1.85;;;24.10;61.10;;;;;;5033492;28;20033;-72
2022/08/05 09:35:01;;;;;;;4.65;1.65;;;24.10;61.10;;;;;;5017043;28;20427;-72
2022/08/05 09:37:28;;;;;;;3.70;1.70;;;24.10;61.20;;;;;;5033864;28;20495;-72
2022/08/05 09:39:54;;;;;;;6.40;1.85;;;24.10;61.20;;;;;;5033276;28;20018;-72
2022/08/05 09:42:20;;;;;;;3.78;1.70;;;24.10;61.10;;;;;;5032528;28;20028;-72
2022/08/05 09:44:49;;;;;;;4.78;2.00;;;24.10;61.10;;;;;;5034113;28;20037;-72
2022/08/05 09:47:24;;;;;;;5.03;1.98;;;24.10;61.10;;;;;;5033246;28;20076;-72
2022/08/05 09:49:54;;;;;;;5.65;2.15;;;24.10;61.20;;;;;;5033095;28;20025;-72
2022/08/05 09:52:25;;;;;;;4.43;1.63;;;24.10;61.20;;;;;;5027878;28;20052;-72
2022/08/05 09:54:57;;;;;;;2.70;1.55;;;24.10;61.20;;;;;;5014530;28;20092;-72
2022/08/05 09:57:36;;;;;;;3.85;1.65;;;24.10;61.20;;;;;;5013286;28;20045;-72
2022/08/05 10:00:11;;;;;;;3.10;1.73;;;24.10;61.20;;;;;;5014197;28;20021;-72
2022/08/05 10:02:41;;;;;;;4.57;1.77;;;24.10;61.20;;;;;;5014595;28;20037;-72
2022/08/05 10:05:16;;;;;;;3.13;1.73;;;24.10;62.20;;;;;;5013105;28;20018;-72
2022/08/05 10:07:54;;;;;;;3.90;1.67;;;24.10;61.20;;;;;;5013019;28;20025;-72
2022/08/05 10:10:21;;;;;;;3.90;1.63;;;24.10;61.20;;;;;;5013169;28;20042;-72
2022/08/05 10:12:48;;;;;;;2.53;1.50;;;24.10;61.20;;;;;;5012956;28;20033;-73
2022/08/05 10:15:16;;;;;;;3.35;1.50;;;24.10;61.30;;;;;;5012690;28;20077;-72
2022/08/05 10:17:42;;;;;;;5.55;1.90;;;24.10;61.20;;;;;;5013088;28;20022;-72
2022/08/05 10:20:10;;;;;;;4.13;1.67;;;24.10;61.20;;;;;;5014082;28;20053;-72
2022/08/05 10:22:38;;;;;;;4.20;1.60;;;24.10;61.20;;;;;;5013963;28;20025;-72
2022/08/05 10:25:04;;;;;;;4.80;2.13;;;24.10;61.20;;;;;;5012771;28;20029;-72
2022/08/05 10:27:30;;;;;;;3.80;1.70;;;24.10;61.20;;;;;;5013722;28;20037;-72
2022/08/05 10:29:55;;;;;;;3.22;1.45;;;24.10;61.20;;;;;;5013558;28;20412;-72
2022/08/05 10:32:21;;;;;;;4.32;1.88;;;24.10;61.20;;;;;;5013827;28;20026;-72
2022/08/05 10:34:46;;;;;;;2.88;1.60;;;24.10;61.20;;;;;;5012636;28;20029;-72
2022/08/05 10:37:12;;;;;;;3.88;1.70;;;24.10;61.20;;;;;;5012448;28;20037;-72
2022/08/05 10:39:38;;;;;;;2.90;1.33;;;24.10;61.20;;;;;;5012707;28;20026;-72
2022/08/05 10:42:17;;;;;;;4.53;1.55;;;24.00;61.20;;;;;;5012291;28;20021;-72
2022/08/05 10:44:44;;;;;;;2.78;1.45;;;24.10;61.20;;;;;;5024305;28;20079;-72
2022/08/05 10:47:13;;;;;;;3.58;1.27;;;24.10;61.30;;;;;;5032159;28;20052;-72
2022/08/05 10:50:15;;;;;;;2.85;1.42;;;24.10;61.20;;;;;;5032103;28;20030;-72
2022/08/05 10:52:42;;;;;;;4.40;1.63;;;24.10;61.20;;;;;;5021592;28;20619;-72
2022/08/05 10:55:12;;;;;;;4.32;1.63;;;24.10;61.20;;;;;;5019956;28;20037;-72
2022/08/05 10:57:40;;;;;;;2.97;1.50;;;24.00;61.20;;;;;;5020706;28;20542;-72
2022/08/05 11:00:17;;;;;;;3.53;1.27;;;24.10;61.20;;;;;;5022946;28;20022;-72
2022/08/05 11:03:10;;;;;;;3.53;2.42;;;24.10;61.20;;;;;;5015203;28;20102;-72
2022/08/05 11:05:36;;;;;;;14.20;6.53;;;24.10;61.30;;;;;;5026770;28;20506;-72
2022/08/05 11:08:06;;;;;;;13.13;5.43;;;24.10;61.30;;;;;;5002548;28;20065;-72
2022/08/05 11:10:33;;;;;;;15.02;6.32;;;24.10;61.50;;;;;;5006919;28;20060;-72
2022/08/05 11:12:59;;;;;;;25.35;10.77;;;24.10;61.50;;;;;;5018794;28;20084;-72
2022/08/05 11:15:27;;;;;;;78.65;24.63;;;24.10;61.50;;;;;;5009903;28;20033;-70
2022/08/05 11:17:54;;;;;;;181.85;52.38;;;24.10;61.70;;;;;;5011772;28;20083;-71
2022/08/05 11:20:41;;;;;;;145.15;46.95;;;24.10;62.10;;;;;;5024722;28;20056;-70
2022/08/05 11:23:25;;;;;;;118.00;39.20;;;24.10;62.30;;;;;;5023653;28;20073;-72
2022/08/05 11:26:01;;;;;;;141.32;46.20;;;24.10;62.30;;;;;;5023120;28;20605;-72
2022/08/05 11:28:26;;;;;;;138.85;45.38;;;24.10;62.30;;;;;;5030920;28;20395;-72
2022/08/05 11:30:58;;;;;;;138.63;44.65;;;24.10;62.40;;;;;;5051375;28;20033;-72
2022/08/05 11:33:29;;;;;;;150.40;50.22;;;24.10;62.50;;;;;;5052566;28;20516;-72
2022/08/05 11:35:56;;;;;;;136.52;45.92;;;24.10;62.60;;;;;;5033843;28;20037;-72
2022/08/05 11:38:37;;;;;;;125.68;45.13;;;24.10;62.60;;;;;;5050332;28;20017;-72
2022/08/05 11:41:03;;;;;;;116.10;44.25;;;24.10;62.60;;;;;;5051206;28;20032;-72
2022/08/05 11:43:29;;;;;;;119.07;43.92;;;24.10;62.60;;;;;;5049357;28;20032;-72
2022/08/05 11:45:55;;;;;;;121.95;44.08;;;24.10;62.60;;;;;;5030647;28;20057;-72
2022/08/05 11:48:21;;;;;;;112.50;42.65;;;24.10;62.70;;;;;;5032408;28;20123;-72
2022/08/05 11:50:48;;;;;;;118.70;42.10;;;24.10;62.60;;;;;;5031215;28;20384;-72
2022/08/05 11:53:14;;;;;;;111.93;41.38;;;24.10;62.60;;;;;;5018330;28;20487;-72
2022/08/05 11:55:52;;;;;;;116.40;41.33;;;24.10;62.60;;;;;;5012162;28;20022;-72
2022/08/05 11:58:35;;;;;;;105.32;38.92;;;24.10;62.60;;;;;;5010342;28;20101;-72
2022/08/05 12:01:04;;;;;;;;;;;24.10;62.60;;;;;;5012613;28;20022;-72
2022/08/05 12:03:30;;;;;;;97.22;37.97;;;24.10;62.50;;;;;;5012531;28;19912;-72
2022/08/05 12:06:01;;;;;;;110.03;38.28;;;24.10;62.60;;;;;;5012773;28;20026;-72
2022/08/05 12:08:27;;;;;;;106.30;38.05;;;24.10;62.60;;;;;;5015309;28;20022;-71
2022/08/05 12:10:52;;;;;;;95.22;37.28;;;24.10;62.60;;;;;;5015195;28;20076;-72
2022/08/05 12:13:18;;;;;;;94.82;36.28;;;24.10;62.60;;;;;;5015242;28;20074;-72
2022/08/05 12:15:44;;;;;;;99.93;37.25;;;24.10;62.60;;;;;;5016274;28;20092;-72
2022/08/05 12:18:09;;;;;;;96.20;35.03;;;24.10;62.60;;;;;;5015214;28;20022;-72
2022/08/05 12:20:37;;;;;;;97.65;35.13;;;24.10;62.50;;;;;;5016356;28;20026;-72
2022/08/05 12:23:12;;;;;;;96.47;34.33;;;24.10;62.50;;;;;;5016019;28;20026;-72
2022/08/05 12:25:53;;;;;;;94.03;34.83;;;24.10;62.50;;;;;;5016286;28;20164;-72
2022/08/05 12:28:32;;;;;;;84.03;32.60;;;24.10;62.50;;;;;;5014656;28;20030;-72
2022/08/05 12:30:57;;;;;;;81.80;31.90;;;24.10;62.50;;;;;;5016093;28;20018;-72
2022/08/05 12:33:24;;;;;;;80.95;31.60;;;24.10;62.50;;;;;;5014684;28;20450;-72
2022/08/05 12:35:49;;;;;;;84.10;32.22;;;24.10;62.50;;;;;;5014876;28;20029;-72
2022/08/05 12:38:15;;;;;;;84.18;32.75;;;24.10;62.50;;;;;;5014753;28;20419;-72
2022/08/05 12:40:40;;;;;;;89.43;31.15;;;24.10;62.60;;;;;;5014785;28;20484;-71
2022/08/05 12:43:06;;;;;;;81.03;29.70;;;24.10;62.50;;;;;;5014769;28;20370;-72
2022/08/05 12:45:32;;;;;;;78.47;29.95;;;24.10;62.50;;;;;;5033986;28;20029;-72
2022/08/05 12:47:57;;;;;;;77.30;30.95;;;24.10;62.50;;;;;;5035437;28;20072;-72
2022/08/05 12:50:23;;;;;;;75.07;29.80;;;24.10;62.50;;;;;;5035610;28;20029;-72